sensor_id;sensor_type;location;lat;lon;timestamp;pressure;altitude;pressure_sealevel;temperature;humidity
78717;BME280;68045;50.042;14.432;2023-05-10T00:02:16;97929.84;;;9.53;60.17
78717;BME280;68045;50.042;14.432;2023-05-10T00:06:17;97920.56;;;9.51;60.13
78717;BME280;68045;50.042;14.432;2023-05-10T00:10:18;97928.81;;;9.54;60.27
78717;BME280;68045;50.042;14.432;2023-05-10T00:14:19;97927.22;;;9.42;60.54
78717;BME280;68045;50.042;14.432;2023-05-10T00:18:20;97927.09;;;9.36;60.91
78717;BME280;68045;50.042;14.432;2023-05-10T00:22:21;97918.19;;;9.26;60.96
78717;BME280;68045;50.042;14.432;2023-05-10T00:26:22;97914.75;;;9.25;60.93
78717;BME280;68045;50.042;14.432;2023-05-10T00:30:26;97916.72;;;9.18;61.58
78717;BME280;68045;50.042;14.432;2023-05-10T00:34:27;97914.31;;;9.17;61.57
78717;BME280;68045;50.042;14.432;2023-05-10T00:38:28;97910.16;;;9.09;61.69
78717;BME280;68045;50.042;14.432;2023-05-10T00:42:31;97900.34;;;9.04;61.75
78717;BME280;68045;50.042;14.432;2023-05-10T00:46:31;97903.78;;;9.05;61.87
78717;BME280;68045;50.042;14.432;2023-05-10T00:50:33;97895.75;;;9.00;61.98
78717;BME280;68045;50.042;14.432;2023-05-10T00:54:34;97898.72;;;8.92;62.67
78717;BME280;68045;50.042;14.432;2023-05-10T00:58:35;97896.31;;;8.90;62.36
78717;BME280;68045;50.042;14.432;2023-05-10T01:02:36;97897.44;;;8.94;62.14
78717;BME280;68045;50.042;14.432;2023-05-10T01:06:37;97897.13;;;8.91;62.67
78717;BME280;68045;50.042;14.432;2023-05-10T01:10:38;97895.16;;;8.86;62.37
78717;BME280;68045;50.042;14.432;2023-05-10T01:14:39;97896.75;;;8.87;62.03
78717;BME280;68045;50.042;14.432;2023-05-10T01:18:41;97883.72;;;8.80;62.17
78717;BME280;68045;50.042;14.432;2023-05-10T01:22:59;97877.66;;;8.80;62.78
78717;BME280;68045;50.042;14.432;2023-05-10T01:27:25;97893.78;;;8.72;62.68
78717;BME280;68045;50.042;14.432;2023-05-10T01:40:00;97876.63;;;8.69;63.09
78717;BME280;68045;50.042;14.432;2023-05-10T01:44:18;97869.28;;;8.60;63.28
78717;BME280;68045;50.042;14.432;2023-05-10T01:48:22;97876.97;;;8.61;63.56
78717;BME280;68045;50.042;14.432;2023-05-10T01:52:28;97873.63;;;8.54;63.90
78717;BME280;68045;50.042;14.432;2023-05-10T01:56:32;97876.69;;;8.51;63.71
78717;BME280;68045;50.042;14.432;2023-05-10T02:00:34;97873.03;;;8.52;63.57
78717;BME280;68045;50.042;14.432;2023-05-10T02:04:36;97869.72;;;8.45;64.12
78717;BME280;68045;50.042;14.432;2023-05-10T02:08:39;97876.22;;;8.42;64.09
78717;BME280;68045;50.042;14.432;2023-05-10T02:12:43;97872.25;;;8.40;63.75
78717;BME280;68045;50.042;14.432;2023-05-10T02:16:47;97868.88;;;8.33;63.98
78717;BME280;68045;50.042;14.432;2023-05-10T02:20:49;97875.59;;;8.29;64.53
78717;BME280;68045;50.042;14.432;2023-05-10T02:24:50;97870.44;;;8.22;65.23
78717;BME280;68045;50.042;14.432;2023-05-10T02:28:52;97876.72;;;8.21;64.55
78717;BME280;68045;50.042;14.432;2023-05-10T02:32:54;97866.06;;;8.16;65.46
78717;BME280;68045;50.042;14.432;2023-05-10T02:36:59;97869.94;;;8.13;65.01
78717;BME280;68045;50.042;14.432;2023-05-10T02:41:01;97869.16;;;8.13;66.06
78717;BME280;68045;50.042;14.432;2023-05-10T02:45:07;97860.34;;;8.07;65.66
78717;BME280;68045;50.042;14.432;2023-05-10T02:49:08;97856.53;;;8.03;66.43
78717;BME280;68045;50.042;14.432;2023-05-10T02:53:13;97859.63;;;8.00;66.19
78717;BME280;68045;50.042;14.432;2023-05-10T02:57:16;97861.69;;;7.98;66.18
78717;BME280;68045;50.042;14.432;2023-05-10T03:01:20;97862.34;;;7.93;65.80
78717;BME280;68045;50.042;14.432;2023-05-10T03:05:20;97859.94;;;7.92;66.11
78717;BME280;68045;50.042;14.432;2023-05-10T03:09:22;97849.50;;;7.85;66.27
78717;BME280;68045;50.042;14.432;2023-05-10T03:13:31;97849.44;;;7.92;66.15
78717;BME280;68045;50.042;14.432;2023-05-10T03:17:56;97850.97;;;7.81;67.16
78717;BME280;68045;50.042;14.432;2023-05-10T03:21:59;97851.34;;;7.85;67.02
78717;BME280;68045;50.042;14.432;2023-05-10T03:26:08;97848.94;;;7.83;66.80
78717;BME280;68045;50.042;14.432;2023-05-10T03:30:12;97857.97;;;7.87;66.60
78717;BME280;68045;50.042;14.432;2023-05-10T03:34:13;97860.59;;;7.87;66.99
78717;BME280;68045;50.042;14.432;2023-05-10T03:38:14;97868.03;;;7.90;66.93
78717;BME280;68045;50.042;14.432;2023-05-10T03:42:15;97862.91;;;7.95;66.87
78717;BME280;68045;50.042;14.432;2023-05-10T03:46:18;97868.88;;;8.03;66.61
78717;BME280;68045;50.042;14.432;2023-05-10T03:50:20;97866.84;;;8.05;66.60
78717;BME280;68045;50.042;14.432;2023-05-10T03:54:22;97865.34;;;8.09;66.14
78717;BME280;68045;50.042;14.432;2023-05-10T03:58:23;97869.94;;;8.13;66.09
78717;BME280;68045;50.042;14.432;2023-05-10T04:02:24;97876.25;;;8.12;66.40
78717;BME280;68045;50.042;14.432;2023-05-10T04:06:25;97876.00;;;8.14;66.33
78717;BME280;68045;50.042;14.432;2023-05-10T04:10:26;97869.06;;;8.19;65.73
78717;BME280;68045;50.042;14.432;2023-05-10T04:14:27;97867.94;;;8.27;66.00
78717;BME280;68045;50.042;14.432;2023-05-10T04:18:28;97865.81;;;8.36;65.68
78717;BME280;68045;50.042;14.432;2023-05-10T04:22:29;97871.78;;;8.43;65.55
78717;BME280;68045;50.042;14.432;2023-05-10T04:26:30;97866.97;;;8.51;65.30
78717;BME280;68045;50.042;14.432;2023-05-10T04:30:31;97864.00;;;8.60;65.32
78717;BME280;68045;50.042;14.432;2023-05-10T04:34:32;97858.78;;;8.71;64.79
78717;BME280;68045;50.042;14.432;2023-05-10T04:38:34;97854.78;;;8.80;64.49
78717;BME280;68045;50.042;14.432;2023-05-10T04:42:35;97866.44;;;8.85;64.63
78717;BME280;68045;50.042;14.432;2023-05-10T04:46:36;97864.28;;;8.93;64.87
78717;BME280;68045;50.042;14.432;2023-05-10T04:50:39;97863.13;;;9.01;64.13
78717;BME280;68045;50.042;14.432;2023-05-10T04:54:39;97855.78;;;9.15;63.80
78717;BME280;68045;50.042;14.432;2023-05-10T04:58:41;97853.47;;;9.30;63.53
78717;BME280;68045;50.042;14.432;2023-05-10T05:02:42;97856.09;;;9.42;63.32
78717;BME280;68045;50.042;14.432;2023-05-10T05:06:44;97861.22;;;9.60;63.30
78717;BME280;68045;50.042;14.432;2023-05-10T05:10:45;97862.25;;;9.59;63.01
78717;BME280;68045;50.042;14.432;2023-05-10T05:14:46;97858.09;;;9.75;63.63
78717;BME280;68045;50.042;14.432;2023-05-10T05:18:47;97864.53;;;9.96;63.12
78717;BME280;68045;50.042;14.432;2023-05-10T05:22:48;97863.38;;;10.03;62.56
78717;BME280;68045;50.042;14.432;2023-05-10T05:26:49;97871.69;;;10.12;62.53
78717;BME280;68045;50.042;14.432;2023-05-10T05:30:50;97875.38;;;10.39;61.73
78717;BME280;68045;50.042;14.432;2023-05-10T05:34:51;97870.59;;;10.53;60.88
78717;BME280;68045;50.042;14.432;2023-05-10T05:38:51;97877.22;;;10.72;60.43
78717;BME280;68045;50.042;14.432;2023-05-10T05:42:52;97876.91;;;10.86;60.89
78717;BME280;68045;50.042;14.432;2023-05-10T05:46:53;97870.63;;;11.09;59.50
78717;BME280;68045;50.042;14.432;2023-05-10T05:50:55;97866.69;;;11.28;59.11
78717;BME280;68045;50.042;14.432;2023-05-10T05:54:56;97867.13;;;11.42;58.58
78717;BME280;68045;50.042;14.432;2023-05-10T05:58:58;97872.66;;;11.62;58.23
78717;BME280;68045;50.042;14.432;2023-05-10T06:02:58;97875.88;;;11.86;58.19
78717;BME280;68045;50.042;14.432;2023-05-10T06:06:59;97874.78;;;12.09;56.99
78717;BME280;68045;50.042;14.432;2023-05-10T06:11:00;97880.25;;;12.24;56.83
78717;BME280;68045;50.042;14.432;2023-05-10T06:15:02;97874.88;;;12.46;55.57
78717;BME280;68045;50.042;14.432;2023-05-10T06:19:03;97872.13;;;12.63;56.41
78717;BME280;68045;50.042;14.432;2023-05-10T06:23:04;97874.94;;;12.83;55.08
78717;BME280;68045;50.042;14.432;2023-05-10T06:27:06;97874.81;;;13.05;55.03
78717;BME280;68045;50.042;14.432;2023-05-10T06:31:07;97876.59;;;13.37;54.64
78717;BME280;68045;50.042;14.432;2023-05-10T06:35:08;97873.00;;;13.53;51.53
78717;BME280;68045;50.042;14.432;2023-05-10T06:39:09;97869.34;;;13.69;50.89
78717;BME280;68045;50.042;14.432;2023-05-10T06:43:12;97875.22;;;13.87;50.28
78717;BME280;68045;50.042;14.432;2023-05-10T06:47:13;97869.69;;;13.98;49.90
78717;BME280;68045;50.042;14.432;2023-05-10T06:51:14;97877.69;;;14.09;49.60
78717;BME280;68045;50.042;14.432;2023-05-10T06:55:15;97868.94;;;14.23;49.53
78717;BME280;68045;50.042;14.432;2023-05-10T06:59:15;97873.22;;;14.29;49.00
78717;BME280;68045;50.042;14.432;2023-05-10T07:03:17;97872.44;;;14.44;48.68
78717;BME280;68045;50.042;14.432;2023-05-10T07:07:18;97877.28;;;14.68;47.76
78717;BME280;68045;50.042;14.432;2023-05-10T07:11:19;97870.06;;;14.78;47.87
78717;BME280;68045;50.042;14.432;2023-05-10T07:15:20;97869.00;;;14.84;47.27
78717;BME280;68045;50.042;14.432;2023-05-10T07:19:21;97878.84;;;15.04;47.09
78717;BME280;68045;50.042;14.432;2023-05-10T07:23:22;97873.53;;;15.04;46.79
78717;BME280;68045;50.042;14.432;2023-05-10T07:27:23;97870.31;;;15.18;47.21
78717;BME280;68045;50.042;14.432;2023-05-10T07:31:24;97868.91;;;15.35;45.80
78717;BME280;68045;50.042;14.432;2023-05-10T07:35:25;97866.72;;;15.63;45.49
78717;BME280;68045;50.042;14.432;2023-05-10T07:39:26;97865.13;;;15.67;45.49
78717;BME280;68045;50.042;14.432;2023-05-10T07:43:27;97863.16;;;15.93;45.67
78717;BME280;68045;50.042;14.432;2023-05-10T07:47:28;97868.94;;;16.05;44.51
78717;BME280;68045;50.042;14.432;2023-05-10T07:51:29;97869.59;;;16.26;44.40
78717;BME280;68045;50.042;14.432;2023-05-10T07:55:30;97862.47;;;16.56;43.83
78717;BME280;68045;50.042;14.432;2023-05-10T07:59:31;97868.25;;;16.68;43.39
78717;BME280;68045;50.042;14.432;2023-05-10T08:03:32;97869.22;;;16.82;43.27
78717;BME280;68045;50.042;14.432;2023-05-10T08:07:33;97866.50;;;17.16;42.91
78717;BME280;68045;50.042;14.432;2023-05-10T08:11:34;97862.44;;;17.48;42.05
78717;BME280;68045;50.042;14.432;2023-05-10T08:15:35;97868.91;;;17.66;41.45
78717;BME280;68045;50.042;14.432;2023-05-10T08:19:36;97872.28;;;17.76;40.80
78717;BME280;68045;50.042;14.432;2023-05-10T08:23:37;97872.53;;;17.99;40.82
78717;BME280;68045;50.042;14.432;2023-05-10T08:27:38;97869.41;;;18.10;39.58
78717;BME280;68045;50.042;14.432;2023-05-10T08:31:39;97871.66;;;17.84;41.14
78717;BME280;68045;50.042;14.432;2023-05-10T08:35:40;97876.66;;;18.29;40.33
78717;BME280;68045;50.042;14.432;2023-05-10T08:39:41;97868.56;;;18.34;39.73
78717;BME280;68045;50.042;14.432;2023-05-10T08:43:43;97873.88;;;18.72;38.93
78717;BME280;68045;50.042;14.432;2023-05-10T08:47:46;97886.97;;;18.54;38.99
78717;BME280;68045;50.042;14.432;2023-05-10T08:51:51;97873.91;;;18.34;38.92
78717;BME280;68045;50.042;14.432;2023-05-10T08:55:53;97877.34;;;18.72;38.26
78717;BME280;68045;50.042;14.432;2023-05-10T08:59:54;97870.72;;;18.70;38.08
78717;BME280;68045;50.042;14.432;2023-05-10T09:03:55;97868.16;;;18.59;38.30
78717;BME280;68045;50.042;14.432;2023-05-10T09:07:56;97864.16;;;19.08;38.21
78717;BME280;68045;50.042;14.432;2023-05-10T09:11:57;97871.59;;;20.08;35.92
78717;BME280;68045;50.042;14.432;2023-05-10T09:15:58;97862.25;;;20.19;35.65
78717;BME280;68045;50.042;14.432;2023-05-10T09:20:01;97881.22;;;20.59;34.44
78717;BME280;68045;50.042;14.432;2023-05-10T09:24:04;97873.72;;;21.23;33.62
78717;BME280;68045;50.042;14.432;2023-05-10T09:28:06;97865.91;;;22.01;32.57
78717;BME280;68045;50.042;14.432;2023-05-10T09:32:08;97865.50;;;22.42;31.06
78717;BME280;68045;50.042;14.432;2023-05-10T09:36:09;97871.78;;;23.07;30.30
78717;BME280;68045;50.042;14.432;2023-05-10T09:40:12;97880.50;;;22.95;29.87
78717;BME280;68045;50.042;14.432;2023-05-10T09:44:16;97867.22;;;22.46;30.41
78717;BME280;68045;50.042;14.432;2023-05-10T09:48:23;97872.13;;;22.70;30.85
78717;BME280;68045;50.042;14.432;2023-05-10T09:52:24;97871.63;;;22.94;29.78
78717;BME280;68045;50.042;14.432;2023-05-10T09:56:44;97865.94;;;22.87;30.39
78717;BME280;68045;50.042;14.432;2023-05-10T10:00:45;97876.22;;;22.68;30.76
78717;BME280;68045;50.042;14.432;2023-05-10T10:04:49;97868.00;;;22.99;29.20
78717;BME280;68045;50.042;14.432;2023-05-10T10:08:51;97855.59;;;23.15;29.81
78717;BME280;68045;50.042;14.432;2023-05-10T10:12:52;97864.56;;;23.66;29.11
78717;BME280;68045;50.042;14.432;2023-05-10T10:16:54;97861.91;;;23.19;29.58
78717;BME280;68045;50.042;14.432;2023-05-10T10:20:56;97870.50;;;23.04;29.92
78717;BME280;68045;50.042;14.432;2023-05-10T10:24:57;97870.94;;;23.53;28.51
78717;BME280;68045;50.042;14.432;2023-05-10T10:29:03;97862.19;;;23.94;27.91
78717;BME280;68045;50.042;14.432;2023-05-10T10:37:47;97856.25;;;25.17;26.64
78717;BME280;68045;50.042;14.432;2023-05-10T10:41:53;97858.53;;;24.61;26.89
78717;BME280;68045;50.042;14.432;2023-05-10T10:46:11;97846.47;;;24.59;27.13
78717;BME280;68045;50.042;14.432;2023-05-10T10:50:15;97851.31;;;25.32;26.37
78717;BME280;68045;50.042;14.432;2023-05-10T10:54:28;97839.00;;;26.48;24.94
78717;BME280;68045;50.042;14.432;2023-05-10T10:58:30;97848.16;;;25.66;25.16
78717;BME280;68045;50.042;14.432;2023-05-10T11:06:41;97827.81;;;24.99;26.49
78717;BME280;68045;50.042;14.432;2023-05-10T11:15:09;97823.44;;;24.61;27.17
78717;BME280;68045;50.042;14.432;2023-05-10T11:19:11;97824.63;;;23.89;27.28
78717;BME280;68045;50.042;14.432;2023-05-10T11:23:13;97826.50;;;23.97;27.67
78717;BME280;68045;50.042;14.432;2023-05-10T11:27:16;97831.47;;;24.70;27.23
78717;BME280;68045;50.042;14.432;2023-05-10T11:31:18;97830.09;;;24.64;26.87
78717;BME280;68045;50.042;14.432;2023-05-10T11:35:19;97818.94;;;24.53;27.27
78717;BME280;68045;50.042;14.432;2023-05-10T11:39:20;97823.19;;;24.54;27.22
78717;BME280;68045;50.042;14.432;2023-05-10T11:43:23;97830.66;;;24.36;27.21
78717;BME280;68045;50.042;14.432;2023-05-10T11:47:26;97822.69;;;24.19;27.87
78717;BME280;68045;50.042;14.432;2023-05-10T11:51:27;97832.41;;;23.91;28.25
78717;BME280;68045;50.042;14.432;2023-05-10T11:55:28;97835.50;;;24.01;28.32
78717;BME280;68045;50.042;14.432;2023-05-10T11:59:31;97828.28;;;23.93;28.82
78717;BME280;68045;50.042;14.432;2023-05-10T12:03:32;97828.13;;;23.60;28.50
78717;BME280;68045;50.042;14.432;2023-05-10T12:07:34;97837.38;;;23.50;29.42
78717;BME280;68045;50.042;14.432;2023-05-10T12:11:40;97850.53;;;23.14;30.05
78717;BME280;68045;50.042;14.432;2023-05-10T12:15:42;97841.44;;;22.63;30.42
78717;BME280;68045;50.042;14.432;2023-05-10T12:19:43;97841.06;;;21.78;32.25
78717;BME280;68045;50.042;14.432;2023-05-10T12:23:45;97851.59;;;21.57;33.03
78717;BME280;68045;50.042;14.432;2023-05-10T12:27:55;97849.94;;;21.30;33.17
78717;BME280;68045;50.042;14.432;2023-05-10T12:31:58;97853.56;;;21.03;33.94
78717;BME280;68045;50.042;14.432;2023-05-10T12:36:00;97851.28;;;20.65;34.97
78717;BME280;68045;50.042;14.432;2023-05-10T12:40:01;97850.00;;;20.63;35.84
78717;BME280;68045;50.042;14.432;2023-05-10T12:44:03;97849.09;;;20.67;35.44
78717;BME280;68045;50.042;14.432;2023-05-10T12:48:04;97847.50;;;20.89;35.21
78717;BME280;68045;50.042;14.432;2023-05-10T12:52:05;97851.03;;;21.06;34.68
78717;BME280;68045;50.042;14.432;2023-05-10T12:56:06;97850.22;;;20.97;35.18
78717;BME280;68045;50.042;14.432;2023-05-10T13:00:08;97850.25;;;21.06;34.82
78717;BME280;68045;50.042;14.432;2023-05-10T13:04:09;97854.78;;;20.97;35.32
78717;BME280;68045;50.042;14.432;2023-05-10T13:08:10;97850.22;;;21.28;34.83
78717;BME280;68045;50.042;14.432;2023-05-10T13:12:11;97859.28;;;21.41;34.63
78717;BME280;68045;50.042;14.432;2023-05-10T13:16:12;97851.81;;;21.29;34.93
78717;BME280;68045;50.042;14.432;2023-05-10T13:20:13;97845.28;;;21.22;35.66
78717;BME280;68045;50.042;14.432;2023-05-10T13:24:15;97854.22;;;21.39;34.94
78717;BME280;68045;50.042;14.432;2023-05-10T13:28:15;97845.56;;;21.20;35.64
78717;BME280;68045;50.042;14.432;2023-05-10T13:32:16;97843.56;;;21.26;35.03
78717;BME280;68045;50.042;14.432;2023-05-10T13:36:17;97849.25;;;20.93;35.56
78717;BME280;68045;50.042;14.432;2023-05-10T13:40:18;97844.44;;;20.81;35.34
78717;BME280;68045;50.042;14.432;2023-05-10T13:44:20;97846.78;;;20.74;35.72
78717;BME280;68045;50.042;14.432;2023-05-10T13:48:21;97836.34;;;20.73;35.86
78717;BME280;68045;50.042;14.432;2023-05-10T13:52:22;97849.13;;;20.76;35.80
78717;BME280;68045;50.042;14.432;2023-05-10T13:56:23;97841.09;;;20.53;36.16
78717;BME280;68045;50.042;14.432;2023-05-10T14:00:23;97844.81;;;20.44;36.80
78717;BME280;68045;50.042;14.432;2023-05-10T14:04:25;97839.66;;;20.34;36.44
78717;BME280;68045;50.042;14.432;2023-05-10T14:08:26;97832.03;;;20.27;37.05
78717;BME280;68045;50.042;14.432;2023-05-10T14:12:27;97836.34;;;20.14;37.42
78717;BME280;68045;50.042;14.432;2023-05-10T14:16:28;97831.34;;;19.99;37.67
78717;BME280;68045;50.042;14.432;2023-05-10T14:20:29;97840.91;;;20.14;37.36
78717;BME280;68045;50.042;14.432;2023-05-10T14:24:30;97826.41;;;20.15;37.63
78717;BME280;68045;50.042;14.432;2023-05-10T14:28:31;97839.66;;;20.11;37.58
78717;BME280;68045;50.042;14.432;2023-05-10T14:32:32;97828.56;;;20.26;37.11
78717;BME280;68045;50.042;14.432;2023-05-10T14:36:33;97832.09;;;20.13;37.53
78717;BME280;68045;50.042;14.432;2023-05-10T14:40:34;97830.00;;;19.88;38.38
78717;BME280;68045;50.042;14.432;2023-05-10T14:44:35;97831.25;;;19.90;38.83
78717;BME280;68045;50.042;14.432;2023-05-10T14:48:36;97832.22;;;19.94;38.90
78717;BME280;68045;50.042;14.432;2023-05-10T14:52:37;97835.75;;;19.81;38.70
78717;BME280;68045;50.042;14.432;2023-05-10T14:56:38;97841.22;;;19.62;39.17
78717;BME280;68045;50.042;14.432;2023-05-10T15:00:38;97832.47;;;19.57;39.02
78717;BME280;68045;50.042;14.432;2023-05-10T15:04:39;97843.38;;;19.46;39.44
78717;BME280;68045;50.042;14.432;2023-05-10T15:08:40;97846.94;;;19.42;39.21
78717;BME280;68045;50.042;14.432;2023-05-10T15:12:42;97857.16;;;19.40;39.63
78717;BME280;68045;50.042;14.432;2023-05-10T15:16:43;97846.47;;;19.40;40.12
78717;BME280;68045;50.042;14.432;2023-05-10T15:20:44;97860.81;;;19.44;39.95
78717;BME280;68045;50.042;14.432;2023-05-10T15:24:45;97865.09;;;19.45;39.15
78717;BME280;68045;50.042;14.432;2023-05-10T15:28:46;97866.88;;;19.36;38.72
78717;BME280;68045;50.042;14.432;2023-05-10T15:32:47;97862.91;;;19.33;38.62
78717;BME280;68045;50.042;14.432;2023-05-10T15:36:47;97860.94;;;19.39;38.82
78717;BME280;68045;50.042;14.432;2023-05-10T15:40:48;97864.50;;;19.48;39.00
78717;BME280;68045;50.042;14.432;2023-05-10T15:44:49;97862.31;;;19.50;38.92
78717;BME280;68045;50.042;14.432;2023-05-10T15:48:50;97859.53;;;19.55;39.08
78717;BME280;68045;50.042;14.432;2023-05-10T15:52:51;97853.41;;;19.55;40.86
78717;BME280;68045;50.042;14.432;2023-05-10T15:56:52;97862.53;;;19.40;44.03
78717;BME280;68045;50.042;14.432;2023-05-10T16:00:54;97873.50;;;19.52;44.95
78717;BME280;68045;50.042;14.432;2023-05-10T16:04:55;97867.78;;;19.72;44.81
78717;BME280;68045;50.042;14.432;2023-05-10T16:08:56;97856.94;;;19.91;44.41
78717;BME280;68045;50.042;14.432;2023-05-10T16:12:57;97856.13;;;20.05;44.10
78717;BME280;68045;50.042;14.432;2023-05-10T16:16:58;97869.72;;;20.08;43.66
78717;BME280;68045;50.042;14.432;2023-05-10T16:20:59;97862.19;;;20.10;43.78
78717;BME280;68045;50.042;14.432;2023-05-10T16:25:01;97868.34;;;20.11;43.81
78717;BME280;68045;50.042;14.432;2023-05-10T16:29:02;97876.06;;;20.12;44.01
78717;BME280;68045;50.042;14.432;2023-05-10T16:33:03;97870.78;;;20.21;42.83
78717;BME280;68045;50.042;14.432;2023-05-10T16:37:04;97872.19;;;20.18;43.38
78717;BME280;68045;50.042;14.432;2023-05-10T16:41:05;97874.94;;;20.27;43.21
78717;BME280;68045;50.042;14.432;2023-05-10T16:45:07;97873.09;;;20.36;42.93
78717;BME280;68045;50.042;14.432;2023-05-10T16:49:08;97881.28;;;20.45;42.90
78717;BME280;68045;50.042;14.432;2023-05-10T16:53:09;97888.59;;;20.53;42.86
78717;BME280;68045;50.042;14.432;2023-05-10T16:57:11;97888.34;;;20.63;42.25
78717;BME280;68045;50.042;14.432;2023-05-10T17:01:12;97901.44;;;20.28;44.68
78717;BME280;68045;50.042;14.432;2023-05-10T17:05:12;97903.50;;;19.82;45.72
78717;BME280;68045;50.042;14.432;2023-05-10T17:09:13;97914.53;;;19.66;46.18
78717;BME280;68045;50.042;14.432;2023-05-10T17:13:14;97911.56;;;19.21;44.71
78717;BME280;68045;50.042;14.432;2023-05-10T17:17:16;97922.59;;;19.01;47.86
78717;BME280;68045;50.042;14.432;2023-05-10T17:21:17;97926.34;;;18.67;49.32
78717;BME280;68045;50.042;14.432;2023-05-10T17:25:18;97929.50;;;18.51;46.22
78717;BME280;68045;50.042;14.432;2023-05-10T17:29:20;97933.25;;;18.50;48.33
78717;BME280;68045;50.042;14.432;2023-05-10T17:33:21;97927.69;;;18.27;50.37
78717;BME280;68045;50.042;14.432;2023-05-10T17:37:22;97942.69;;;17.80;52.86
78717;BME280;68045;50.042;14.432;2023-05-10T17:41:23;97945.06;;;17.58;53.38
78717;BME280;68045;50.042;14.432;2023-05-10T17:45:24;97947.31;;;17.17;54.80
78717;BME280;68045;50.042;14.432;2023-05-10T17:49:26;97955.19;;;16.98;55.58
78717;BME280;68045;50.042;14.432;2023-05-10T17:53:28;97956.47;;;16.71;56.70
78717;BME280;68045;50.042;14.432;2023-05-10T17:57:29;97956.81;;;16.55;57.52
78717;BME280;68045;50.042;14.432;2023-05-10T18:01:30;97961.06;;;16.56;57.27
78717;BME280;68045;50.042;14.432;2023-05-10T18:05:35;97972.66;;;16.36;58.00
78717;BME280;68045;50.042;14.432;2023-05-10T18:09:36;97967.94;;;16.17;58.70
78717;BME280;68045;50.042;14.432;2023-05-10T18:13:37;97981.78;;;16.14;58.85
78717;BME280;68045;50.042;14.432;2023-05-10T18:17:38;97983.41;;;16.05;59.15
78717;BME280;68045;50.042;14.432;2023-05-10T18:21:39;97980.00;;;15.89;59.49
78717;BME280;68045;50.042;14.432;2023-05-10T18:25:40;97992.56;;;15.79;59.56
78717;BME280;68045;50.042;14.432;2023-05-10T18:29:40;97999.50;;;15.64;59.87
78717;BME280;68045;50.042;14.432;2023-05-10T18:33:43;98010.41;;;15.48;60.62
78717;BME280;68045;50.042;14.432;2023-05-10T18:37:44;98000.03;;;15.26;61.18
78717;BME280;68045;50.042;14.432;2023-05-10T18:41:45;98002.19;;;15.08;61.48
78717;BME280;68045;50.042;14.432;2023-05-10T18:45:46;98013.06;;;14.97;61.80
78717;BME280;68045;50.042;14.432;2023-05-10T18:49:47;98008.78;;;14.80;62.41
78717;BME280;68045;50.042;14.432;2023-05-10T18:53:48;98023.13;;;14.74;62.45
78717;BME280;68045;50.042;14.432;2023-05-10T18:57:48;98030.31;;;14.74;62.81
78717;BME280;68045;50.042;14.432;2023-05-10T19:01:49;98033.72;;;14.64;62.94
78717;BME280;68045;50.042;14.432;2023-05-10T19:05:50;98046.44;;;14.52;63.49
78717;BME280;68045;50.042;14.432;2023-05-10T19:09:51;98048.19;;;14.31;63.92
78717;BME280;68045;50.042;14.432;2023-05-10T19:13:52;98043.63;;;14.21;64.24
78717;BME280;68045;50.042;14.432;2023-05-10T19:17:53;98047.88;;;14.17;64.50
78717;BME280;68045;50.042;14.432;2023-05-10T19:21:53;98057.13;;;14.10;64.83
78717;BME280;68045;50.042;14.432;2023-05-10T19:25:54;98054.13;;;14.01;65.10
78717;BME280;68045;50.042;14.432;2023-05-10T19:29:55;98053.59;;;13.99;65.01
78717;BME280;68045;50.042;14.432;2023-05-10T19:33:56;98067.91;;;13.98;65.31
78717;BME280;68045;50.042;14.432;2023-05-10T19:37:57;98066.31;;;13.97;65.16
78717;BME280;68045;50.042;14.432;2023-05-10T19:41:58;98075.84;;;13.93;65.26
78717;BME280;68045;50.042;14.432;2023-05-10T19:46:00;98075.31;;;13.91;65.57
78717;BME280;68045;50.042;14.432;2023-05-10T19:50:02;98070.78;;;13.91;65.33
78717;BME280;68045;50.042;14.432;2023-05-10T19:54:03;98070.28;;;13.94;65.62
78717;BME280;68045;50.042;14.432;2023-05-10T19:58:04;98070.03;;;13.96;65.25
78717;BME280;68045;50.042;14.432;2023-05-10T20:02:05;98067.66;;;13.99;65.09
78717;BME280;68045;50.042;14.432;2023-05-10T20:06:07;98065.84;;;14.05;65.10
78717;BME280;68045;50.042;14.432;2023-05-10T20:10:09;98068.53;;;14.15;64.63
78717;BME280;68045;50.042;14.432;2023-05-10T20:14:10;98069.09;;;14.17;64.26
78717;BME280;68045;50.042;14.432;2023-05-10T20:18:11;98071.78;;;14.27;64.28
78717;BME280;68045;50.042;14.432;2023-05-10T20:22:12;98071.81;;;14.33;64.03
78717;BME280;68045;50.042;14.432;2023-05-10T20:26:13;98069.69;;;14.35;63.92
78717;BME280;68045;50.042;14.432;2023-05-10T20:30:14;98068.13;;;14.44;63.69
78717;BME280;68045;50.042;14.432;2023-05-10T20:34:15;98069.00;;;14.49;63.31
78717;BME280;68045;50.042;14.432;2023-05-10T20:38:16;98073.97;;;14.41;63.73
78717;BME280;68045;50.042;14.432;2023-05-10T20:42:17;98070.06;;;14.48;63.51
78717;BME280;68045;50.042;14.432;2023-05-10T20:46:18;98067.16;;;14.55;63.10
78717;BME280;68045;50.042;14.432;2023-05-10T20:50:19;98060.03;;;14.71;62.68
78717;BME280;68045;50.042;14.432;2023-05-10T20:54:20;98053.69;;;14.77;62.53
78717;BME280;68045;50.042;14.432;2023-05-10T20:58:21;98055.53;;;14.87;62.37
78717;BME280;68045;50.042;14.432;2023-05-10T21:02:22;98052.91;;;14.92;62.60
78717;BME280;68045;50.042;14.432;2023-05-10T21:06:23;98051.84;;;14.98;62.25
78717;BME280;68045;50.042;14.432;2023-05-10T21:10:24;98058.25;;;14.97;62.38
78717;BME280;68045;50.042;14.432;2023-05-10T21:14:28;98059.25;;;14.86;62.63
78717;BME280;68045;50.042;14.432;2023-05-10T21:18:30;98057.69;;;14.84;62.53
78717;BME280;68045;50.042;14.432;2023-05-10T21:22:31;98050.78;;;14.83;62.50
78717;BME280;68045;50.042;14.432;2023-05-10T21:26:32;98054.50;;;14.93;62.37
78717;BME280;68045;50.042;14.432;2023-05-10T21:30:32;98059.56;;;14.89;62.22